Time;durP1;ratioP1;P1;durP2;ratioP2;P2;SDS_P1;SDS_P2;PMS_P1;PMS_P2;Temp;Humidity;BMP_temperature;BMP_pressure;BME280_temperature;BME280_humidity;BME280_pressure;Samples;Min_cycle;Max_cycle;Signal;HPM_P1;HPM_P2
2022/09/03 00:02:40;;;;;;;5.28;1.25;;;17.90;1.00;;;;;;5049798;28;20037;-57
2022/09/03 00:05:34;;;;;;;5.45;1.67;;;17.80;1.00;;;;;;5048856;28;20049;-57
2022/09/03 00:08:12;;;;;;;5.22;1.23;;;17.80;1.00;;;;;;5021883;28;20045;-58
2022/09/03 00:11:00;;;;;;;1.45;1.27;;;17.70;1.00;;;;;;5052282;28;20492;-58
2022/09/03 00:13:34;;;;;;;3.85;1.48;;;17.70;1.00;;;;;;5033222;28;20041;-58
2022/09/03 00:16:10;;;;;;;2.50;1.15;;;17.70;1.00;;;;;;5050039;28;20120;-57
2022/09/03 00:18:43;;;;;;;4.38;1.55;;;17.70;1.00;;;;;;5047539;28;20041;-57
2022/09/03 00:21:17;;;;;;;2.67;1.48;;;17.70;1.00;;;;;;5033902;28;20032;-57
2022/09/03 00:23:45;;;;;;;4.47;1.40;;;17.60;1.00;;;;;;5049498;28;20036;-58
2022/09/03 00:26:13;;;;;;;7.03;1.60;;;17.60;1.00;;;;;;5047580;28;20494;-58
2022/09/03 00:29:04;;;;;;;7.75;1.38;;;17.60;1.00;;;;;;5043681;28;20047;-57
2022/09/03 00:31:42;;;;;;;2.03;1.30;;;17.50;1.00;;;;;;5031749;28;20088;-57
2022/09/03 00:34:39;;;;;;;2.40;1.17;;;17.50;1.00;;;;;;5048328;28;20047;-59
2022/09/03 00:37:07;;;;;;;4.22;1.40;;;17.40;1.00;;;;;;5037795;28;20041;-58
2022/09/03 00:39:32;;;;;;;3.05;1.33;;;17.30;1.00;;;;;;5050133;28;20138;-58
2022/09/03 00:42:10;;;;;;;2.88;1.33;;;17.30;1.00;;;;;;5051009;28;20072;-57
2022/09/03 00:45:00;;;;;;;1.83;1.17;;;17.30;1.00;;;;;;5050325;28;20490;-57
2022/09/03 00:47:48;;;;;;;3.13;1.10;;;17.20;1.00;;;;;;5050896;28;20044;-57
2022/09/03 00:50:34;;;;;;;1.63;1.30;;;17.20;1.00;;;;;;5016632;28;20154;-57
2022/09/03 00:53:22;;;;;;;3.63;1.50;;;17.20;1.00;;;;;;5035608;28;20106;-58
2022/09/03 00:56:12;;;;;;;3.30;1.25;;;17.10;1.00;;;;;;5040994;28;20053;-57
2022/09/03 00:59:04;;;;;;;9.82;1.50;;;17.10;1.00;;;;;;5042188;28;20045;-57
2022/09/03 01:01:46;;;;;;;4.38;1.42;;;17.10;1.00;;;;;;5037798;28;20115;-58
2022/09/03 01:05:17;;;;;;;4.35;1.05;;;17.00;1.00;;;;;;5046696;28;20049;-56
2022/09/03 01:08:27;;;;;;;2.85;1.20;;;17.00;1.00;;;;;;4944785;28;20513;-57
2022/09/03 01:11:01;;;;;;;4.13;1.00;;;17.00;1.00;;;;;;5023141;28;20063;-57
2022/09/03 01:13:38;;;;;;;6.07;1.23;;;16.90;1.00;;;;;;5054644;28;20470;-57
2022/09/03 01:16:41;;;;;;;7.95;1.48;;;16.90;1.00;;;;;;5054315;28;20043;-57
2022/09/03 01:19:24;;;;;;;1.50;1.10;;;16.90;1.00;;;;;;5047991;28;20123;-57
2022/09/03 01:22:24;;;;;;;1.35;1.13;;;16.90;1.00;;;;;;5054528;28;20037;-58
2022/09/03 01:25:16;;;;;;;9.43;1.38;;;16.90;1.00;;;;;;5053560;28;20122;-57
2022/09/03 01:28:00;;;;;;;1.13;1.00;;;16.90;1.00;;;;;;5045029;28;20053;-58
2022/09/03 01:30:28;;;;;;;2.33;1.02;;;16.90;1.00;;;;;;5052074;28;20399;-57
2022/09/03 01:33:12;;;;;;;2.55;1.10;;;16.90;1.00;;;;;;5040671;28;20049;-57
2022/09/03 01:35:40;;;;;;;4.97;1.08;;;16.90;1.00;;;;;;5053669;28;20542;-57
2022/09/03 01:38:15;;;;;;;1.33;0.98;;;16.90;1.00;;;;;;5048079;28;20088;-57
2022/09/03 01:44:09;;;;;;;7.20;1.20;;;16.90;1.00;;;;;;5052987;28;20430;-59
2022/09/03 01:46:39;;;;;;;2.05;1.08;;;16.90;1.00;;;;;;5032341;28;20091;-57
2022/09/03 01:49:31;;;;;;;3.83;1.17;;;16.90;1.00;;;;;;5043485;28;20048;-56
2022/09/03 01:52:18;;;;;;;1.60;1.20;;;16.90;1.00;;;;;;5039296;28;20033;-59
2022/09/03 01:55:06;;;;;;;1.38;0.90;;;16.80;1.00;;;;;;5035870;28;20402;-57
2022/09/03 01:57:46;;;;;;;3.15;1.00;;;16.80;1.00;;;;;;5053778;28;20490;-57
2022/09/03 02:00:21;;;;;;;2.03;1.20;;;16.90;1.00;;;;;;5052079;28;20116;-57
2022/09/03 02:02:50;;;;;;;4.53;1.40;;;16.90;1.00;;;;;;5046281;28;20034;-57
2022/09/03 02:05:23;;;;;;;3.85;1.00;;;16.90;1.00;;;;;;5054115;28;20084;-57
2022/09/03 02:07:58;;;;;;;3.03;1.58;;;16.90;1.00;;;;;;5045393;28;20444;-56
2022/09/03 02:10:51;;;;;;;4.30;1.02;;;16.90;1.00;;;;;;5034521;28;20076;-57
2022/09/03 02:13:28;;;;;;;4.57;1.27;;;16.90;1.00;;;;;;5037617;28;20045;-56
2022/09/03 02:15:59;;;;;;;3.08;0.93;;;16.90;1.00;;;;;;5035270;28;20049;-57
2022/09/03 02:18:30;;;;;;;2.70;1.08;;;16.90;1.00;;;;;;5050662;28;20114;-59
2022/09/03 02:20:57;;;;;;;5.43;1.00;;;16.90;1.00;;;;;;5031651;28;20060;-57
2022/09/03 02:23:24;;;;;;;2.15;1.00;;;16.90;1.00;;;;;;5038944;28;20445;-57
2022/09/03 02:25:54;;;;;;;4.57;1.17;;;16.90;1.00;;;;;;5037932;28;20041;-56
2022/09/03 02:28:20;;;;;;;4.88;1.40;;;16.90;1.00;;;;;;5037393;28;20045;-58
2022/09/03 02:30:47;;;;;;;3.80;1.15;;;16.90;1.00;;;;;;5037683;28;20076;-56
2022/09/03 02:33:13;;;;;;;9.07;0.95;;;16.90;1.00;;;;;;5052875;28;20494;-57
2022/09/03 02:35:40;;;;;;;1.75;1.17;;;16.90;1.00;;;;;;5046014;28;20433;-56
2022/09/03 02:38:15;;;;;;;5.18;1.10;;;16.90;1.00;;;;;;5046639;28;20502;-57
2022/09/03 02:40:42;;;;;;;1.58;0.95;;;16.90;1.00;;;;;;5036200;28;20599;-58
2022/09/03 02:43:14;;;;;;;2.97;1.10;;;16.80;1.00;;;;;;5035381;28;20663;-56
2022/09/03 02:45:45;;;;;;;2.55;1.17;;;16.80;1.00;;;;;;5053472;28;20402;-57
2022/09/03 02:48:15;;;;;;;1.02;0.90;;;16.80;1.00;;;;;;5049395;28;20106;-57
2022/09/03 02:50:42;;;;;;;2.65;1.10;;;16.80;1.00;;;;;;5017457;28;20041;-58
2022/09/03 02:53:08;;;;;;;4.22;1.20;;;16.80;1.00;;;;;;5038173;28;20051;-58
2022/09/03 02:55:34;;;;;;;2.17;1.20;;;16.80;1.00;;;;;;5034527;28;20409;-57
2022/09/03 02:57:59;;;;;;;1.20;0.77;;;16.80;1.00;;;;;;5053537;28;20051;-57
2022/09/03 03:00:27;;;;;;;2.58;1.13;;;16.80;1.00;;;;;;5019665;28;20487;-57
2022/09/03 03:02:54;;;;;;;2.65;0.88;;;16.70;1.00;;;;;;5038699;28;20490;-57
2022/09/03 03:05:26;;;;;;;3.50;0.98;;;16.80;1.00;;;;;;5051231;28;20120;-56
2022/09/03 03:07:51;;;;;;;6.50;1.05;;;16.80;1.00;;;;;;5034303;28;20068;-56
2022/09/03 03:10:17;;;;;;;1.98;1.10;;;16.80;1.00;;;;;;5047540;28;20356;-57
2022/09/03 03:12:43;;;;;;;2.42;1.50;;;16.70;1.00;;;;;;5042023;28;20502;-57
2022/09/03 03:15:09;;;;;;;2.97;1.02;;;16.80;1.00;;;;;;5052242;28;20037;-57
2022/09/03 03:17:34;;;;;;;1.88;0.93;;;16.70;1.00;;;;;;5052632;28;20041;-57
2022/09/03 03:20:00;;;;;;;3.30;1.15;;;16.70;1.00;;;;;;5041965;28;20045;-57
2022/09/03 03:22:25;;;;;;;2.30;1.00;;;16.70;1.00;;;;;;5017330;28;20034;-57
2022/09/03 03:24:51;;;;;;;3.78;1.20;;;16.70;1.00;;;;;;5048651;28;20029;-57
2022/09/03 03:27:17;;;;;;;2.08;1.27;;;16.80;1.00;;;;;;5016919;28;20384;-57
2022/09/03 03:29:43;;;;;;;4.60;1.23;;;16.80;1.00;;;;;;5016141;28;20041;-57
2022/09/03 03:32:08;;;;;;;4.63;1.00;;;16.80;1.00;;;;;;5050335;28;20052;-56
2022/09/03 03:34:34;;;;;;;1.95;1.10;;;16.80;1.00;;;;;;5021714;28;20490;-57
2022/09/03 03:36:59;;;;;;;1.33;1.20;;;16.80;1.00;;;;;;5034039;28;20045;-57
2022/09/03 03:39:25;;;;;;;1.70;1.05;;;16.80;1.00;;;;;;5052128;28;20119;-57
2022/09/03 03:41:51;;;;;;;10.00;1.30;;;16.70;1.00;;;;;;5051977;28;20470;-57
2022/09/03 03:44:19;;;;;;;1.80;1.10;;;16.70;1.00;;;;;;5027819;28;20045;-57
2022/09/03 03:46:45;;;;;;;2.45;1.13;;;16.70;1.00;;;;;;5049508;28;20041;-57
2022/09/03 03:49:11;;;;;;;2.75;1.15;;;16.70;1.00;;;;;;5038152;28;20055;-57
2022/09/03 03:51:37;;;;;;;1.58;1.20;;;16.70;1.00;;;;;;5049733;28;20039;-57
2022/09/03 03:54:03;;;;;;;3.33;1.30;;;16.70;1.00;;;;;;5051910;28;20119;-57
2022/09/03 03:56:29;;;;;;;2.65;0.95;;;16.60;1.00;;;;;;5024879;28;20041;-57
2022/09/03 03:58:55;;;;;;;2.35;1.42;;;16.50;1.00;;;;;;5035412;28;20041;-56
2022/09/03 04:01:26;;;;;;;3.83;1.90;;;16.50;1.00;;;;;;5051997;28;20045;-56
2022/09/03 04:03:54;;;;;;;7.20;1.30;;;16.40;1.00;;;;;;5049837;28;20040;-57
2022/09/03 04:06:20;;;;;;;2.28;1.25;;;16.40;1.00;;;;;;5033254;28;20056;-57
2022/09/03 04:08:48;;;;;;;2.22;1.30;;;16.40;1.00;;;;;;5050148;28;20033;-59
2022/09/03 04:11:19;;;;;;;1.02;0.93;;;16.30;1.00;;;;;;5037013;28;20510;-58
2022/09/03 04:13:46;;;;;;;2.10;0.90;;;16.30;1.00;;;;;;5047538;28;20041;-57
2022/09/03 04:16:14;;;;;;;1.58;1.20;;;16.30;1.00;;;;;;5040415;28;20041;-57
2022/09/03 04:18:40;;;;;;;2.08;1.00;;;16.20;1.00;;;;;;5004849;28;20041;-58
2022/09/03 04:21:12;;;;;;;2.33;1.10;;;16.20;1.00;;;;;;5031977;28;20041;-58
2022/09/03 04:23:40;;;;;;;3.40;1.08;;;16.10;1.00;;;;;;5037816;28;20090;-57
2022/09/03 04:26:07;;;;;;;2.28;0.98;;;16.10;1.00;;;;;;5046686;28;20044;-56
2022/09/03 04:28:33;;;;;;;2.03;1.08;;;16.00;1.00;;;;;;5032474;28;20041;-57
2022/09/03 04:31:01;;;;;;;2.60;1.27;;;16.00;1.00;;;;;;5026262;28;20480;-57
2022/09/03 04:33:27;;;;;;;1.77;0.98;;;16.00;1.00;;;;;;5050889;28;20115;-56
2022/09/03 04:36:02;;;;;;;1.45;1.20;;;16.00;1.00;;;;;;5051869;28;20134;-57
2022/09/03 04:38:28;;;;;;;1.17;1.08;;;16.00;1.00;;;;;;5038198;28;20037;-58
2022/09/03 04:40:54;;;;;;;2.45;1.20;;;16.00;1.00;;;;;;5044581;28;20501;-57
2022/09/03 04:43:19;;;;;;;1.27;1.00;;;15.90;1.00;;;;;;5050156;28;20112;-57
2022/09/03 04:45:45;;;;;;;2.97;1.20;;;15.90;1.00;;;;;;5051033;28;20163;-58
2022/09/03 04:48:10;;;;;;;1.70;1.00;;;15.90;1.20;;;;;;5051160;28;20041;-58
2022/09/03 04:50:36;;;;;;;1.20;1.10;;;15.90;6.10;;;;;;5039945;28;20064;-57
2022/09/03 04:53:03;;;;;;;3.15;1.00;;;15.90;10.10;;;;;;5043499;28;20044;-57
2022/09/03 04:55:36;;;;;;;1.38;1.00;;;15.80;14.10;;;;;;5037821;28;20051;-58
2022/09/03 04:58:02;;;;;;;2.35;1.20;;;15.80;17.30;;;;;;5031409;28;20045;-57
2022/09/03 05:00:28;;;;;;;3.08;1.20;;;15.80;23.50;;;;;;5046014;28;20116;-56
2022/09/03 05:02:53;;;;;;;1.63;1.20;;;15.80;28.00;;;;;;5050578;28;20117;-62
2022/09/03 05:05:19;;;;;;;3.08;1.20;;;15.80;37.90;;;;;;5033014;28;20063;-57
2022/09/03 05:07:45;;;;;;;1.27;1.00;;;16.10;47.10;;;;;;5044054;28;20120;-56
2022/09/03 05:10:19;;;;;;;2.42;1.00;;;15.70;58.00;;;;;;5040892;28;20099;-58
2022/09/03 05:12:46;;;;;;;3.50;1.00;;;15.70;65.10;;;;;;5053285;28;20120;-57
2022/09/03 05:15:12;;;;;;;1.30;1.20;;;15.70;77.30;;;;;;5054291;28;20068;-57
2022/09/03 05:17:38;;;;;;;1.45;1.17;;;15.60;85.00;;;;;;5035817;28;20081;-57
2022/09/03 05:20:06;;;;;;;3.08;1.20;;;15.60;91.60;;;;;;5048365;28;20086;-58
2022/09/03 05:22:33;;;;;;;2.05;1.20;;;15.60;98.60;;;;;;5043478;28;20042;-58
2022/09/03 05:24:58;;;;;;;3.30;1.00;;;15.50;99.90;;;;;;5049142;28;20127;-56
2022/09/03 05:27:24;;;;;;;2.28;1.10;;;15.50;99.90;;;;;;5046493;28;20128;-56
2022/09/03 05:29:50;;;;;;;2.05;1.27;;;15.50;99.90;;;;;;5027064;28;20048;-56
2022/09/03 05:32:16;;;;;;;1.58;0.95;;;15.50;99.90;;;;;;5051157;28;20040;-57
2022/09/03 05:34:42;;;;;;;2.28;1.08;;;15.50;99.90;;;;;;5049707;28;20122;-58
2022/09/03 05:37:08;;;;;;;1.13;1.00;;;15.50;99.90;;;;;;5049715;28;20025;-56
2022/09/03 05:39:33;;;;;;;1.98;1.25;;;15.60;99.90;;;;;;5049753;28;20086;-57
2022/09/03 05:41:59;;;;;;;1.95;1.08;;;15.60;99.90;;;;;;5050737;28;20037;-57
2022/09/03 05:44:25;;;;;;;3.25;1.20;;;15.60;99.90;;;;;;5045641;28;20048;-58
2022/09/03 05:46:50;;;;;;;2.08;0.93;;;15.60;99.90;;;;;;5049973;28;20039;-57
2022/09/03 05:49:16;;;;;;;2.33;1.17;;;15.60;99.90;;;;;;5049955;28;20486;-57
2022/09/03 05:51:43;;;;;;;3.22;1.25;;;15.60;99.90;;;;;;5051488;28;20045;-56
2022/09/03 05:54:09;;;;;;;4.65;1.10;;;15.60;99.90;;;;;;5052072;28;20040;-56
2022/09/03 05:56:36;;;;;;;1.02;0.90;;;15.50;99.90;;;;;;5053404;28;20033;-57
2022/09/03 05:59:08;;;;;;;5.35;1.27;;;15.50;99.90;;;;;;5053853;28;20509;-57
2022/09/03 06:01:38;;;;;;;1.95;1.13;;;15.50;99.90;;;;;;5036559;28;20052;-58
2022/09/03 06:04:09;;;;;;;3.92;1.60;;;15.50;99.90;;;;;;5051871;28;20087;-57
2022/09/03 06:06:37;;;;;;;3.15;1.50;;;15.50;99.90;;;;;;5053427;28;20040;-59
2022/09/03 06:09:06;;;;;;;1.77;1.20;;;15.50;99.90;;;;;;5035786;28;20053;-60
2022/09/03 06:11:34;;;;;;;1.33;1.23;;;15.50;99.90;;;;;;5048575;28;20111;-60
2022/09/03 06:14:03;;;;;;;1.48;1.17;;;15.60;99.90;;;;;;5048697;28;20068;-60
2022/09/03 06:16:30;;;;;;;3.38;1.23;;;15.60;99.90;;;;;;5048341;28;20521;-60
2022/09/03 06:18:56;;;;;;;2.65;1.27;;;15.60;99.90;;;;;;5054234;28;20051;-59
2022/09/03 06:21:22;;;;;;;1.33;1.23;;;15.70;99.90;;;;;;5058994;28;20530;-61
2022/09/03 06:23:55;;;;;;;1.42;0.98;;;15.70;99.90;;;;;;5048665;28;20056;-60
2022/09/03 06:26:21;;;;;;;3.83;1.50;;;15.80;99.90;;;;;;5007093;28;64019;-59
2022/09/03 06:28:48;;;;;;;0.90;0.90;;;15.80;99.90;;;;;;5052841;28;20045;-60
2022/09/03 06:31:18;;;;;;;3.22;1.25;;;15.90;99.90;;;;;;5034249;28;20071;-59
2022/09/03 06:33:46;;;;;;;1.65;1.10;;;16.00;99.90;;;;;;5047011;28;20049;-60
2022/09/03 06:36:14;;;;;;;2.92;1.30;;;16.00;99.90;;;;;;5050374;28;20487;-60
2022/09/03 06:38:40;;;;;;;1.27;1.00;;;16.10;99.90;;;;;;5050465;28;20069;-59
2022/09/03 06:41:12;;;;;;;2.67;1.40;;;16.20;99.90;;;;;;5052307;28;20512;-60
2022/09/03 06:43:41;;;;;;;3.08;1.17;;;16.20;99.90;;;;;;5048303;28;20028;-59
2022/09/03 06:46:15;;;;;;;1.88;1.50;;;16.20;99.90;;;;;;5049241;28;20040;-59
2022/09/03 06:48:41;;;;;;;12.98;1.15;;;16.30;99.90;;;;;;5046241;28;20037;-59
2022/09/03 06:51:10;;;;;;;3.13;1.40;;;16.40;99.90;;;;;;5052326;28;20037;-59
2022/09/03 06:53:38;;;;;;;2.38;1.40;;;16.50;99.90;;;;;;5029916;28;20055;-59
2022/09/03 06:56:09;;;;;;;2.55;1.15;;;16.50;99.90;;;;;;5052329;28;20047;-59
2022/09/03 06:58:41;;;;;;;3.60;1.73;;;16.60;99.90;;;;;;5052067;28;20544;-59
2022/09/03 07:01:12;;;;;;;2.78;1.33;;;16.70;99.90;;;;;;5051802;28;20449;-60
2022/09/03 07:03:40;;;;;;;3.45;1.20;;;16.70;99.90;;;;;;5035397;28;20037;-58
2022/09/03 07:06:17;;;;;;;2.15;1.23;;;16.80;99.90;;;;;;5051968;28;20088;-58
2022/09/03 07:08:45;;;;;;;1.52;1.20;;;16.90;99.90;;;;;;5033595;28;20046;-59
2022/09/03 07:11:13;;;;;;;4.40;1.40;;;17.00;99.90;;;;;;5023478;28;20128;-60
2022/09/03 07:13:42;;;;;;;3.85;1.30;;;17.00;99.90;;;;;;5050294;28;20037;-60
2022/09/03 07:16:10;;;;;;;1.55;1.40;;;17.00;99.90;;;;;;5052474;28;20041;-59
2022/09/03 07:18:37;;;;;;;2.35;0.95;;;17.10;99.30;;;;;;5050237;28;20517;-59
2022/09/03 07:21:05;;;;;;;4.68;1.27;;;17.20;91.90;;;;;;5049445;28;20045;-60
2022/09/03 07:23:32;;;;;;;2.97;1.52;;;17.30;85.30;;;;;;5043179;28;20494;-59
2022/09/03 07:26:00;;;;;;;4.03;1.25;;;17.40;84.70;;;;;;5049309;28;20033;-59
2022/09/03 07:28:26;;;;;;;1.38;1.20;;;17.40;66.80;;;;;;5051108;28;20041;-59
2022/09/03 07:30:53;;;;;;;4.60;1.63;;;17.60;68.50;;;;;;5051094;28;20506;-59
2022/09/03 07:33:18;;;;;;;2.80;1.50;;;17.60;46.10;;;;;;5052356;28;20048;-60
2022/09/03 07:35:45;;;;;;;1.75;1.15;;;17.80;39.70;;;;;;5050197;28;20401;-60
2022/09/03 07:38:11;;;;;;;1.92;1.33;;;17.90;30.10;;;;;;5051308;28;20504;-61
2022/09/03 07:40:38;;;;;;;30.55;1.85;;;18.00;23.30;;;;;;5033217;28;20448;-60
2022/09/03 07:43:04;;;;;;;6.90;1.40;;;18.10;2.60;;;;;;5049434;28;20431;-58
2022/09/03 07:45:32;;;;;;;2.15;1.52;;;18.20;1.00;;;;;;5031959;28;20068;-58
2022/09/03 07:47:58;;;;;;;3.30;1.33;;;18.50;1.00;;;;;;5047995;28;20037;-60
2022/09/03 07:50:24;;;;;;;2.03;1.17;;;18.90;1.00;;;;;;5049133;28;20489;-60
2022/09/03 07:52:55;;;;;;;16.15;1.63;;;19.30;1.00;;;;;;5049638;28;20095;-60
2022/09/03 07:55:21;;;;;;;3.63;1.30;;;19.40;1.00;;;;;;5047588;28;20041;-62
2022/09/03 07:57:46;;;;;;;2.60;1.30;;;19.50;1.00;;;;;;5044426;28;20409;-59
2022/09/03 08:00:13;;;;;;;2.05;1.50;;;19.70;1.00;;;;;;5048597;28;20041;-60
2022/09/03 08:02:39;;;;;;;4.55;1.50;;;19.90;1.00;;;;;;5044656;28;20068;-59
2022/09/03 08:05:04;;;;;;;1.65;1.17;;;20.00;1.00;;;;;;5028966;28;20092;-59
2022/09/03 08:07:30;;;;;;;2.85;1.45;;;20.10;1.00;;;;;;5044879;28;20038;-59
2022/09/03 08:09:56;;;;;;;1.73;1.23;;;20.20;1.00;;;;;;5047022;28;20639;-60
2022/09/03 08:12:22;;;;;;;1.85;1.15;;;20.50;1.00;;;;;;5045052;28;20043;-60
2022/09/03 08:14:47;;;;;;;2.80;1.38;;;20.80;1.00;;;;;;5038649;28;20048;-60
2022/09/03 08:17:13;;;;;;;2.90;0.98;;;20.60;1.00;;;;;;5044768;28;20057;-61
2022/09/03 08:19:40;;;;;;;3.58;1.50;;;20.70;1.00;;;;;;5043071;28;20033;-59
2022/09/03 08:22:06;;;;;;;5.53;1.40;;;20.80;99.90;;;;;;5031255;28;20107;-60
2022/09/03 08:24:33;;;;;;;2.20;1.20;;;20.90;99.90;;;;;;5045560;28;20128;-60
2022/09/03 08:26:59;;;;;;;2.00;1.13;;;21.00;99.90;;;;;;5046928;28;20107;-60
2022/09/03 08:29:26;;;;;;;4.97;1.70;;;20.80;99.90;;;;;;5034753;28;20109;-60
2022/09/03 08:31:51;;;;;;;2.88;1.60;;;20.90;99.90;;;;;;5048380;28;20076;-63
2022/09/03 08:34:18;;;;;;;2.38;1.17;;;21.20;99.90;;;;;;5048377;28;20451;-65
2022/09/03 08:36:45;;;;;;;5.32;1.40;;;21.10;99.90;;;;;;5029545;28;20076;-60
2022/09/03 08:39:11;;;;;;;4.20;1.52;;;21.50;99.90;;;;;;5028754;28;20033;-59
2022/09/03 08:41:52;;;;;;;3.75;1.30;;;21.60;99.90;;;;;;5046145;28;20086;-61
2022/09/03 08:44:29;;;;;;;6.15;1.60;;;21.90;99.90;;;;;;5050634;28;20043;-60
2022/09/03 08:47:06;;;;;;;4.55;1.20;;;21.90;99.90;;;;;;5045548;28;20072;-60
2022/09/03 08:49:54;;;;;;;4.65;1.20;;;21.90;99.90;;;;;;5043632;28;20121;-60
2022/09/03 08:52:47;;;;;;;2.10;1.40;;;21.80;99.90;;;;;;5051048;28;20045;-64
2022/09/03 08:55:30;;;;;;;4.22;1.40;;;22.00;99.90;;;;;;5041303;28;20146;-61
2022/09/03 08:58:13;;;;;;;1.38;1.25;;;22.30;99.90;;;;;;5020071;28;20037;-60
2022/09/03 09:00:48;;;;;;;2.15;1.35;;;22.50;99.90;;;;;;5050322;28;20052;-60
2022/09/03 09:03:42;;;;;;;1.58;1.17;;;22.40;99.90;;;;;;5037492;28;20807;-61
2022/09/03 09:06:49;;;;;;;1.73;1.42;;;22.60;99.90;;;;;;5050529;28;20567;-60
2022/09/03 09:09:39;;;;;;;3.38;1.30;;;22.70;99.90;;;;;;5048123;28;22064;-60
2022/09/03 09:12:34;;;;;;;3.22;1.52;;;22.90;99.90;;;;;;5039330;28;20040;-61
2022/09/03 09:15:11;;;;;;;4.90;1.48;;;23.20;99.90;;;;;;5048493;28;20116;-61
2022/09/03 09:18:07;;;;;;;4.43;1.38;;;23.30;99.90;;;;;;5040790;28;20040;-61
2022/09/03 09:20:43;;;;;;;1.92;1.00;;;23.50;99.90;;;;;;5015692;28;20394;-60
2022/09/03 09:23:17;;;;;;;5.35;1.50;;;23.30;99.90;;;;;;5023119;28;20033;-62
2022/09/03 09:25:50;;;;;;;2.78;1.50;;;23.40;99.90;;;;;;5034282;28;20505;-60
2022/09/03 09:28:33;;;;;;;2.03;1.30;;;23.30;99.90;;;;;;5036833;28;20124;-62
2022/09/03 09:31:01;;;;;;;2.13;1.52;;;23.20;99.90;;;;;;5054920;28;20504;-61
2022/09/03 09:33:31;;;;;;;1.67;1.23;;;23.20;99.90;;;;;;5053285;28;20044;-60
2022/09/03 09:36:00;;;;;;;1.60;1.23;;;23.30;99.90;;;;;;5055377;28;20049;-61
2022/09/03 09:38:31;;;;;;;2.08;1.40;;;23.30;99.90;;;;;;5044797;28;20045;-61
2022/09/03 09:41:18;;;;;;;1.80;1.45;;;23.30;99.90;;;;;;5052639;28;20040;-62
2022/09/03 09:43:46;;;;;;;1.63;1.27;;;23.60;99.90;;;;;;5051871;28;20143;-61
2022/09/03 09:46:21;;;;;;;7.95;1.80;;;23.70;99.90;;;;;;5036349;28;20040;-60
2022/09/03 09:48:55;;;;;;;9.38;1.40;;;23.70;99.90;;;;;;5054272;28;20049;-61
2022/09/03 09:51:22;;;;;;;2.90;1.42;;;23.60;99.90;;;;;;5053585;28;20045;-60
2022/09/03 09:53:59;;;;;;;4.78;1.35;;;23.40;99.90;;;;;;5023206;28;20045;-60
2022/09/03 09:56:25;;;;;;;1.90;1.10;;;23.20;99.90;;;;;;5041131;28;20072;-60
2022/09/03 09:59:05;;;;;;;4.40;1.73;;;23.00;99.90;;;;;;5045691;28;20402;-60
2022/09/03 10:01:31;;;;;;;1.05;1.05;;;23.00;99.90;;;;;;5054591;28;20037;-60
2022/09/03 10:03:59;;;;;;;5.25;1.60;;;23.00;99.90;;;;;;5037542;28;20037;-60
2022/09/03 10:09:19;;;;;;;5.72;1.75;;;23.30;99.90;;;;;;5047955;28;20052;-60
2022/09/03 10:12:08;;;;;;;2.75;1.60;;;23.40;99.90;;;;;;5031863;28;20402;-60
2022/09/03 10:14:44;;;;;;;2.80;1.40;;;23.40;99.90;;;;;;5053977;28;20455;-60
2022/09/03 10:17:30;;;;;;;1.90;1.27;;;23.50;99.90;;;;;;5052658;28;20094;-61
2022/09/03 10:20:31;;;;;;;5.80;1.42;;;23.70;99.90;;;;;;5044995;28;20036;-60
2022/09/03 10:23:02;;;;;;;5.95;1.52;;;23.70;99.90;;;;;;5034253;28;20040;-61
2022/09/03 10:25:38;;;;;;;4.20;1.50;;;23.70;99.90;;;;;;5039996;28;20059;-60
2022/09/03 10:28:07;;;;;;;2.22;1.02;;;23.80;99.90;;;;;;5034306;28;20045;-61
2022/09/03 10:30:47;;;;;;;4.25;1.30;;;23.80;99.90;;;;;;5052239;28;20049;-60
2022/09/03 10:33:21;;;;;;;3.88;1.85;;;23.70;99.90;;;;;;5049200;28;20036;-60
2022/09/03 10:35:56;;;;;;;6.43;1.50;;;23.70;99.90;;;;;;5052693;28;20037;-60
2022/09/03 10:38:32;;;;;;;1.65;1.33;;;23.80;99.90;;;;;;5045721;28;20048;-60
2022/09/03 10:41:24;;;;;;;4.43;1.30;;;23.90;99.90;;;;;;5041989;28;20041;-60
2022/09/03 10:44:09;;;;;;;6.07;1.30;;;24.00;99.90;;;;;;5048471;28;20098;-61
2022/09/03 10:46:58;;;;;;;3.88;1.50;;;24.10;99.90;;;;;;5034950;28;20056;-60
2022/09/03 10:49:37;;;;;;;2.58;1.33;;;24.20;99.90;;;;;;5045923;28;20045;-60
2022/09/03 10:52:19;;;;;;;1.77;1.20;;;24.20;99.90;;;;;;5046374;28;20116;-61
2022/09/03 10:54:52;;;;;;;4.10;1.40;;;24.30;99.90;;;;;;5045167;28;20049;-60
2022/09/03 10:57:35;;;;;;;5.75;1.23;;;24.40;99.90;;;;;;5049516;28;20394;-60
2022/09/03 11:00:08;;;;;;;6.72;1.55;;;24.50;99.90;;;;;;5050188;28;20063;-61
2022/09/03 11:02:58;;;;;;;4.95;1.35;;;24.50;99.90;;;;;;5048832;28;20135;-60
2022/09/03 11:05:37;;;;;;;3.83;1.20;;;24.90;99.90;;;;;;5048617;28;20140;-60
2022/09/03 11:08:27;;;;;;;3.08;1.30;;;25.10;99.90;;;;;;5051956;28;20040;-61
2022/09/03 11:11:06;;;;;;;8.27;1.30;;;25.30;99.90;;;;;;5052317;28;20108;-60
2022/09/03 11:13:37;;;;;;;4.05;1.50;;;25.10;99.90;;;;;;5036554;28;20533;-61
2022/09/03 11:16:25;;;;;;;3.03;1.20;;;24.80;99.90;;;;;;5035716;28;20045;-60
2022/09/03 11:18:56;;;;;;;3.35;1.27;;;24.60;99.90;;;;;;5047685;28;20047;-61
2022/09/03 11:21:28;;;;;;;2.25;1.10;;;24.60;99.90;;;;;;5043561;28;20040;-62
2022/09/03 11:24:13;;;;;;;1.10;1.00;;;24.60;99.90;;;;;;5035041;28;20048;-60
2022/09/03 11:27:00;;;;;;;3.25;1.20;;;24.50;99.90;;;;;;5042382;28;20041;-61
2022/09/03 11:29:36;;;;;;;6.75;1.33;;;24.40;99.90;;;;;;5042727;28;20041;-60
2022/09/03 11:32:28;;;;;;;1.67;1.30;;;24.50;99.90;;;;;;5051725;28;20041;-60
2022/09/03 11:34:54;;;;;;;6.85;1.25;;;24.50;99.90;;;;;;5008093;28;20479;-59
2022/09/03 11:37:23;;;;;;;3.80;1.48;;;24.60;99.90;;;;;;5021750;28;20069;-60
2022/09/03 11:40:15;;;;;;;1.45;1.20;;;24.50;99.90;;;;;;5044836;28;20080;-60
2022/09/03 11:42:43;;;;;;;2.00;1.10;;;24.50;99.90;;;;;;5044656;28;20037;-61
2022/09/03 11:45:25;;;;;;;2.65;1.27;;;24.50;99.90;;;;;;5047298;28;20430;-61
2022/09/03 11:47:53;;;;;;;1.33;1.05;;;24.60;99.90;;;;;;5035887;28;20045;-59
2022/09/03 11:50:21;;;;;;;1.65;1.10;;;24.60;99.90;;;;;;5018141;28;20049;-61
2022/09/03 11:52:50;;;;;;;1.05;0.95;;;24.60;99.90;;;;;;5032739;28;20490;-61
2022/09/03 11:55:29;;;;;;;1.90;1.00;;;24.80;99.90;;;;;;5046143;28;20041;-60
2022/09/03 11:57:54;;;;;;;1.77;1.00;;;24.70;99.90;;;;;;5034821;28;20045;-60
2022/09/03 12:00:23;;;;;;;1.30;1.15;;;24.70;99.90;;;;;;5047056;28;20490;-60
2022/09/03 12:02:57;;;;;;;6.30;1.50;;;24.70;99.90;;;;;;5044963;28;20116;-60
2022/09/03 12:05:39;;;;;;;1.23;0.90;;;24.80;99.90;;;;;;5027952;28;20059;-60
2022/09/03 12:08:12;;;;;;;0.73;0.73;;;24.70;99.90;;;;;;5051233;28;20468;-60
2022/09/03 12:10:43;;;;;;;4.85;1.20;;;24.80;99.90;;;;;;5051359;28;20118;-59
2022/09/03 12:13:17;;;;;;;2.63;1.20;;;24.70;99.90;;;;;;5042247;28;20041;-60
2022/09/03 12:15:56;;;;;;;1.50;0.98;;;24.80;99.90;;;;;;5048737;28;20383;-61
2022/09/03 12:18:25;;;;;;;3.50;1.05;;;25.00;99.90;;;;;;5031999;28;20049;-64
2022/09/03 12:20:51;;;;;;;1.83;1.17;;;25.20;99.90;;;;;;5050178;28;20095;-61
2022/09/03 12:23:49;;;;;;;1.50;1.30;;;25.00;99.90;;;;;;5016999;28;20073;-60
2022/09/03 12:26:22;;;;;;;1.30;1.02;;;24.90;99.90;;;;;;5043639;28;20036;-60
2022/09/03 12:28:56;;;;;;;1.58;1.15;;;24.90;99.90;;;;;;5034505;28;20402;-60
2022/09/03 12:31:24;;;;;;;1.58;1.10;;;25.00;99.90;;;;;;5031815;28;20048;-60
2022/09/03 12:33:52;;;;;;;2.15;1.10;;;25.20;99.90;;;;;;5048621;28;20398;-60
2022/09/03 12:36:22;;;;;;;7.40;1.40;;;25.20;99.90;;;;;;5048344;28;20126;-60
2022/09/03 12:38:49;;;;;;;9.63;1.00;;;25.10;99.90;;;;;;5044472;28;20037;-60
2022/09/03 12:41:29;;;;;;;3.70;1.10;;;25.10;99.90;;;;;;5053090;28;20037;-60
2022/09/03 12:43:58;;;;;;;2.35;1.17;;;25.20;99.90;;;;;;5049834;28;20048;-60
2022/09/03 12:46:32;;;;;;;1.20;1.08;;;25.20;99.90;;;;;;5049638;28;20045;-60
2022/09/03 12:49:04;;;;;;;1.67;1.13;;;25.10;99.90;;;;;;5048486;28;20549;-60
2022/09/03 12:51:38;;;;;;;3.28;1.10;;;25.10;99.90;;;;;;5030312;28;20053;-60
2022/09/03 12:54:08;;;;;;;3.80;1.40;;;25.00;99.90;;;;;;5021997;28;20048;-62
2022/09/03 12:56:36;;;;;;;3.85;1.20;;;25.10;99.90;;;;;;5043355;28;20301;-60
2022/09/03 12:59:12;;;;;;;1.73;1.02;;;25.10;99.90;;;;;;5039556;28;20124;-60
2022/09/03 13:01:51;;;;;;;7.88;1.25;;;25.00;99.90;;;;;;5051631;28;20426;-60
2022/09/03 13:04:25;;;;;;;6.30;1.10;;;25.10;99.90;;;;;;5052681;28;20079;-60
2022/09/03 13:07:20;;;;;;;3.03;1.30;;;25.10;99.90;;;;;;5053167;28;20038;-60
2022/09/03 13:09:46;;;;;;;5.20;1.10;;;25.20;99.90;;;;;;5036894;28;20072;-64
2022/09/03 13:12:27;;;;;;;8.77;2.03;;;25.10;99.90;;;;;;5049689;28;20033;-60
2022/09/03 13:14:53;;;;;;;1.95;1.20;;;25.20;99.90;;;;;;5043413;28;20033;-60
2022/09/03 13:17:31;;;;;;;5.15;1.20;;;25.20;99.90;;;;;;5050123;28;20033;-60
2022/09/03 13:20:31;;;;;;;3.47;1.00;;;25.30;99.90;;;;;;5035643;28;20402;-59
2022/09/03 13:22:56;;;;;;;1.23;1.00;;;25.30;99.90;;;;;;5051353;28;20063;-59
2022/09/03 13:25:51;;;;;;;1.90;1.00;;;25.50;99.90;;;;;;5047503;28;20047;-60
2022/09/03 13:28:21;;;;;;;2.80;1.10;;;25.30;99.90;;;;;;5050571;28;20059;-59